Flight Track Log - Related Links

Times and Time Zones

All times are in EDT time to prevent confusion due to time zone crossing. See the FDX1286 flight status page for this flight to view local times or setup timezone preferences in your user account.

Time Position Orientation Groundspeed Altitude Reporting Facility
EDT Latitude Longitude Course Direction KTS MPH feet Rate Location/Type
Fri 11:39:38 PM 39.7950 -82.9550 222° Southwest 159 183 1,900  Level FlightAware ADS-B
Fri 11:40:06 PM 39.7760 -82.9770 222° Southwest 201 231 2,500 1,607 Climbing FlightAware ADS-B
Fri 11:40:34 PM 39.7580 -83.0010 226° Southwest 222 255 3,400 1,821 Climbing FlightAware ADS-B
Fri 11:41:02 PM 39.7430 -83.0380 242° Southwest 256 295 4,200 2,357 Climbing FlightAware ADS-B
Fri 11:41:30 PM 39.7270 -83.0750 241° Southwest 262 302 5,600 3,222 Climbing FlightAware ADS-B
Fri 11:41:56 PM 39.7110 -83.1120 241° Southwest 261 300 7,100 3,231 Climbing FlightAware ADS-B
Fri 11:42:22 PM 39.6950 -83.1480 240° Southwest 262 302 8,400 2,875 Climbing FlightAware ADS-B
Fri 11:42:44 PM 39.6820 -83.1780 241° Southwest 267 307 9,400 1,875 Climbing FlightAware ADS-B
Fri 11:43:26 PM 39.6460 -83.2320 229° Southwest 297 342 10,400 1,465 Climbing FlightAware ADS-B
Fri 11:44:10 PM 39.6000 -83.2890 224° Southwest 335 386 11,500 1,500 Climbing FlightAware ADS-B
Fri 11:44:42 PM 39.5630 -83.3360 224° Southwest 358 412 12,300 1,974 Climbing FlightAware ADS-B
Fri 11:45:26 PM 39.5090 -83.4020 223° Southwest 367 422 14,000 2,214 Climbing FlightAware ADS-B
Fri 11:46:06 PM 39.4590 -83.4640 224° Southwest 376 433 15,400 2,189 Climbing FlightAware ADS-B
Fri 11:46:40 PM 39.4170 -83.5170 224° Southwest 380 437 16,700 2,100 Climbing FlightAware ADS-B
Fri 11:47:26 PM 39.3570 -83.5910 224° Southwest 390 449 18,200 1,953 Climbing FlightAware ADS-B
Fri 11:48:06 PM 39.3050 -83.6560 224° Southwest 395 455 19,500 1,769 Climbing FlightAware ADS-B
Fri 11:48:44 PM 39.2550 -83.7170 223° Southwest 403 464 20,500 1,677 Climbing FlightAware ADS-B
Fri 11:49:39 PM 39.1780 -83.8110 223° Southwest 413 475 22,100 1,339 Climbing FlightAware ADS-B
Fri 11:50:36 PM 39.1060 -83.8990 223° Southwest 415 478 23,000 1,179 Climbing FlightAware ADS-B
Fri 11:51:36 PM 39.0180 -84.0060 223° Southwest 428 493 24,400 1,393 Climbing FlightAware ADS-B
Fri 11:52:28 PM 38.9440 -84.0960 223° Southwest 431 496 25,600 1,689 Climbing FlightAware ADS-B
Fri 11:53:19 PM 38.8620 -84.1950 223° Southwest 438 504 27,300 1,333 Climbing FlightAware ADS-B
Fri 11:54:34 PM 38.7600 -84.3180 223° Southwest 441 507 28,400 595 Climbing FlightAware ADS-B
Fri 11:55:10 PM 38.7140 -84.3720 222° Southwest 441 507 28,400  Level FlightAware ADS-B
Fri 11:55:58 PM 38.6530 -84.4450 223° Southwest 441 507 28,400  Level FlightAware ADS-B
Fri 11:56:34 PM 38.6080 -84.4990 223° Southwest 441 507 28,400 3,043 Level FlightAware ADS-B
Fri 11:57:07 PM 38.5180 -84.6070 223° Southwest 448 516 31,900 3,520 Climbing FlightAware ADS-B
Fri 11:57:49 PM 38.4610 -84.6760 223° Southwest 445 512 32,800 1,244 Climbing FlightAware ADS-B
Fri 11:58:29 PM 38.3970 -84.7520 223° Southwest 442 509 33,600 889 Climbing FlightAware ADS-B
Fri 11:59:10 PM 38.3320 -84.8280 223° Southwest 438 504 34,000 282 Climbing FlightAware ADS-B
Fri 11:59:54 PM 38.2660 -84.9050 223° Southwest 438 504 34,000  Level FlightAware ADS-B
Sat 12:00:34 AM 38.2060 -84.9750 223° Southwest 438 504 34,000  Level FlightAware ADS-B
Sat 12:01:18 AM 38.1410 -85.0520 223° Southwest 435 501 34,000  Level FlightAware ADS-B
Sat 12:01:50 AM 38.0949 -85.1076 224° Southwest 434 499 34,000  Level FlightAware ADS-B
Sat 12:02:42 AM 38.0180 -85.1970 222° Southwest 432 497 34,000  Level FlightAware ADS-B
Sat 12:03:18 AM 37.9650 -85.2590 223° Southwest 435 501 34,000  Level FlightAware ADS-B
Sat 12:03:58 AM 37.9060 -85.3280 223° Southwest 435 501 34,000  Level FlightAware ADS-B
Sat 12:04:40 AM 37.8430 -85.4010 222° Southwest 437 503 34,000  Level FlightAware ADS-B
Sat 12:05:20 AM 37.7830 -85.4700 222° Southwest 438 504 34,000  Level FlightAware ADS-B
Sat 12:05:56 AM 37.7300 -85.5320 223° Southwest 437 503 34,000  Level FlightAware ADS-B
Sat 12:06:40 AM 37.6630 -85.6080 222° Southwest 438 504 34,000  Level FlightAware ADS-B
Sat 12:07:23 AM 37.5980 -85.6841 223° Southwest 440 506 34,000  Level FlightAware ADS-B
Sat 12:07:54 AM 37.5522 -85.7358 222° Southwest 439 505 34,000  Level FlightAware ADS-B
Sat 12:08:26 AM 37.5045 -85.7910 223° Southwest 439 505 34,000  Level FlightAware ADS-B
Sat 12:09:00 AM 37.4530 -85.8495 222° Southwest 440 506 34,000  Level FlightAware ADS-B
Sat 12:09:30 AM 37.4074 -85.9026 223° Southwest 440 506 34,000  Level FlightAware ADS-B
Sat 12:10:00 AM 37.3619 -85.9543 222° Southwest 440 506 34,000  Level FlightAware ADS-B
Sat 12:10:31 AM 37.3157 -86.0059 222° Southwest 440 506 34,000  Level FlightAware ADS-B
Sat 12:11:02 AM 37.2690 -86.0589 222° Southwest 440 506 34,000  Level FlightAware ADS-B
Sat 12:11:33 AM 37.2229 -86.1119 222° Southwest 440 506 34,000  Level FlightAware ADS-B
Sat 12:12:03 AM 37.1776 -86.1633 222° Southwest 438 504 34,000  Level FlightAware ADS-B
Sat 12:12:39 AM 37.1228 -86.2248 222° Southwest 439 505 34,000  Level FlightAware ADS-B
Sat 12:13:17 AM 37.0700 -86.2971 228° Southwest 438 504 34,000  Level FlightAware ADS-B
Sat 12:13:47 AM 37.0301 -86.3546 229° Southwest 437 503 34,000  Level FlightAware ADS-B
Sat 12:14:20 AM 36.9868 -86.4158 228° Southwest 438 504 34,000  Level FlightAware ADS-B
Sat 12:14:52 AM 36.9451 -86.4770 230° Southwest 437 503 34,000  Level FlightAware ADS-B
Sat 12:15:22 AM 36.9048 -86.5342 229° Southwest 437 503 34,000  Level FlightAware ADS-B
Sat 12:15:52 AM 36.8641 -86.5933 229° Southwest 437 503 34,000  Level FlightAware ADS-B
Sat 12:16:23 AM 36.8233 -86.6505 228° Southwest 437 503 34,000  Level FlightAware ADS-B
Sat 12:16:59 AM 36.7756 -86.7188 229° Southwest 438 504 34,000  Level FlightAware ADS-B
Sat 12:17:32 AM 36.7321 -86.7815 229° Southwest 437 503 34,000  Level FlightAware ADS-B
Sat 12:18:11 AM 36.6789 -86.8577 229° Southwest 439 505 34,000  Level FlightAware ADS-B
Sat 12:19:18 AM 36.5910 -86.9820 229° Southwest 441 507 34,000  Level FlightAware ADS-B
Sat 12:19:54 AM 36.5410 -87.0520 228° Southwest 442 509 34,000  Level FlightAware ADS-B
Sat 12:20:40 AM 36.4790 -87.1400 229° Southwest 444 511 34,000  Level FlightAware ADS-B
Sat 12:21:20 AM 36.4250 -87.2170 229° Southwest 444 511 34,000  Level FlightAware ADS-B
Sat 12:21:56 AM 36.3750 -87.2860 228° Southwest 447 514 34,000  Level FlightAware ADS-B
Sat 12:22:52 AM 36.2990 -87.3940 229° Southwest 447 514 34,000  Level FlightAware ADS-B
Sat 12:23:37 AM 36.2370 -87.4800 228° Southwest 446 513 34,000  Level FlightAware ADS-B
Sat 12:24:18 AM 36.1810 -87.5580 228° Southwest 447 514 34,000  Level FlightAware ADS-B
Sat 12:25:02 AM 36.1200 -87.6420 228° Southwest 446 513 34,000  Level FlightAware ADS-B
Sat 12:25:42 AM 36.0640 -87.7200 228° Southwest 446 513 34,000 79 Level FlightAware ADS-B
Sat 12:26:18 AM 36.0150 -87.7870 228° Southwest 445 512 34,100  Climbing FlightAware ADS-B
Sat 12:26:58 AM 35.9600 -87.8630 228° Southwest 446 513 34,000 -286 Descending FlightAware ADS-B
Sat 12:27:42 AM 35.9010 -87.9450 228° Southwest 433 498 33,700 -600 Descending FlightAware ADS-B
Sat 12:28:18 AM 35.8520 -88.0110 228° Southwest 429 494 33,200 -1,463 Descending FlightAware ADS-B
Sat 12:29:04 AM 35.7930 -88.0920 228° Southwest 420 483 31,700 -2,170 Descending FlightAware ADS-B
Sat 12:29:52 AM 35.7290 -88.1790 228° Southwest 419 482 29,800 -1,500 Descending FlightAware ADS-B
Sat 12:30:28 AM 35.6890 -88.2340 228° Southwest 419 482 29,600 -1,227 Descending FlightAware ADS-B
Sat 12:31:20 AM 35.6270 -88.3200 228° Southwest 409 471 28,000 -1,079 Descending FlightAware ADS-B
Sat 12:31:57 AM 35.5870 -88.3750 228° Southwest 409 471 28,000  Level FlightAware ADS-B
Sat 12:32:45 AM 35.5350 -88.4450 228° Southwest 409 471 28,000  Level FlightAware ADS-B
Sat 12:33:21 AM 35.4970 -88.4980 229° Southwest 409 471 28,000  Level FlightAware ADS-B
Sat 12:33:55 AM 35.4600 -88.5480 228° Southwest 409 471 28,000 -4,992 Level FlightAware ADS-B
Sat 12:35:20 AM 35.3319 -88.6978 228° Southwest 378 435 18,100 -5,007 Descending Memphis Center
Sat 12:36:20 AM 35.2603 -88.7831 224° Southwest 378 435 15,900 -2,150 Descending Memphis Center
Sat 12:37:20 AM 35.1903 -88.8708 226° Southwest 372 428 13,800 -2,100 Descending Memphis Center
Sat 12:38:20 AM 35.1244 -88.9531 226° Southwest 351 404 11,700 -1,500 Descending Memphis Center
Sat 12:39:20 AM 35.0628 -89.0278 225° Southwest 327 376 10,800 -1,100 Descending Memphis Center
Sat 12:40:20 AM 35.0325 -89.1169 247° West 270 311 9,500 -1,350 Descending Memphis Center
Sat 12:41:20 AM 35.0394 -89.2106 275° West 270 311 8,100 -1,400 Descending Memphis Center
Sat 12:42:20 AM 35.0403 -89.3044 271° West 270 311 6,700 -1,050 Descending Memphis Center
Sat 12:43:20 AM 35.0433 -89.4033 272° West 275 316 6,000 -700 Descending Memphis Center
Sat 12:44:20 AM 35.0461 -89.4972 272° West 280 322 5,300 -850 Descending Memphis Center
Sat 12:45:20 AM 35.0489 -89.5936 272° West 285 328 4,300 -1,000 Descending Memphis Center
Sat 12:46:20 AM 35.0514 -89.6875 272° West 285 328 3,300 -650 Descending Memphis Center
Sat 12:47:20 AM 35.0561 -89.7686 274° West 269 310 3,000 -450 Descending Memphis Center
Sat 12:48:20 AM 35.0564 -89.8319 270° West 212 244 2,400 -800 Descending Memphis Center
Sat 12:49:20 AM 35.0564 -89.8878 270° West 186 214 1,400 -918 Descending Memphis Center
Sat 12:49:58 AM 35.0500 -89.9167 255° West 142 163 900 -789 Descending KMEM
Sat 12:54:00 AM 35.0333 -89.9667 270° West  Level FlightAware Approximate
Sat 01:01:00 AM 35.0424 -89.9767 270° West  Level Estimated
Sat 01:02:00 AM 35.0424 -89.9767 270° West  Level Estimated
Sat 01:03:00 AM 35.0424 -89.9767 270° West  Level Estimated
Sat 01:04:00 AM 35.0424 -89.9767 270° West  Level Estimated
Sat 01:05:00 AM 35.0424 -89.9767 270° West  Level Estimated
Sat 01:06:00 AM 35.0424 -89.9767 270° West  Level Estimated

Login

Don't have an account? Register now (free) for customized features, flight alerts, and more!